Time,TemperatureF,DewpointF,PressureIn,WindDirection,WindDirectionDegrees,WindSpeedMPH,WindSpeedGustMPH,Humidity,HourlyPrecipIn,Conditions,Clouds,dailyrainin,SoftwareType,DateUTC
2013-07-20 00:12:00,80.0,75.0,-100.00,SSW,195,12.0,16.0,86,-99.99,,,-99.99,,2013-07-20 05:12:00,
2013-07-20 00:22:00,80.0,75.0,-100.00,SSW,195,12.0,16.0,86,-99.99,,,-99.99,,2013-07-20 05:22:00,
2013-07-20 00:32:00,80.0,75.0,-100.00,SSW,195,11.0,16.0,86,-99.99,,,-99.99,,2013-07-20 05:32:00,
2013-07-20 00:52:00,80.0,75.0,-100.00,SSW,195,11.0,15.0,86,-99.99,,,-99.99,,2013-07-20 05:52:00,
2013-07-20 01:21:00,79.0,75.0,-100.00,SW,215,11.0,18.0,86,-99.99,,,-99.99,,2013-07-20 06:21:00,
2013-07-20 01:52:00,80.0,74.0,-100.00,SSW,205,12.0,16.0,84,-99.99,,,-99.99,,2013-07-20 06:52:00,
2013-07-20 02:12:00,79.0,74.0,-100.00,SSW,200,10.0,15.0,84,-99.99,,,-99.99,,2013-07-20 07:12:00,
2013-07-20 02:22:00,79.0,74.0,-100.00,SSW,200,10.0,15.0,84,-99.99,,,-99.99,,2013-07-20 07:22:00,
2013-07-20 02:44:00,79.0,74.0,-100.00,WNW,290,9.0,11.0,86,-99.99,,,-99.99,,2013-07-20 07:44:00,
2013-07-20 02:54:00,79.0,74.0,-100.00,WNW,290,9.0,11.0,86,-99.99,,,-99.99,,2013-07-20 07:54:00,
2013-07-20 03:11:00,77.0,74.0,-100.00,WSW,245,7.0,9.0,91,-99.99,,,-99.99,,2013-07-20 08:11:00,
2013-07-20 03:22:00,77.0,74.0,-100.00,WSW,245,7.0,9.0,91,-99.99,,,-99.99,,2013-07-20 08:22:00,
2013-07-20 03:44:00,77.0,74.0,-100.00,SW,220,9.0,13.0,90,-99.99,,,-99.99,,2013-07-20 08:44:00,
2013-07-20 03:52:00,77.0,74.0,-100.00,SW,220,9.0,13.0,90,-99.99,,,-99.99,,2013-07-20 08:52:00,
2013-07-20 04:22:00,76.0,73.0,-100.00,SW,225,6.0,10.0,91,-99.99,,,-99.99,,2013-07-20 09:22:00,
2013-07-20 04:53:00,76.0,73.0,-100.00,SSW,205,7.0,11.0,92,-99.99,,,-99.99,,2013-07-20 09:53:00,
2013-07-20 05:01:00,75.0,73.0,-100.00,SW,220,5.0,10.0,94,-99.99,,,-99.99,,2013-07-20 10:01:00,
2013-07-20 05:22:00,75.0,73.0,-100.00,SW,225,6.0,8.0,94,-99.99,,,-99.99,,2013-07-20 10:22:00,
2013-07-20 05:42:00,75.0,73.0,-100.00,WSW,250,4.0,6.0,94,-99.99,,,-99.99,,2013-07-20 10:42:00,
2013-07-20 05:52:00,75.0,73.0,-100.00,WSW,250,4.0,6.0,94,-99.99,,,-99.99,,2013-07-20 10:52:00,
2013-07-20 06:02:00,75.0,73.0,-100.00,WSW,255,1.0,4.0,94,-99.99,,,-99.99,,2013-07-20 11:02:00,
2013-07-20 06:11:00,74.0,72.0,-100.00,NW,310,2.0,5.0,94,-99.99,,,-99.99,,2013-07-20 11:11:00,
2013-07-20 06:22:00,74.0,72.0,-100.00,NW,310,2.0,5.0,94,-99.99,,,-99.99,,2013-07-20 11:22:00,
2013-07-20 06:32:00,74.0,73.0,-100.00,West,280,6.0,7.0,95,-99.99,,,-99.99,,2013-07-20 11:32:00,
2013-07-20 06:43:00,74.0,73.0,-100.00,North,0,4.0,6.0,95,-99.99,,,-99.99,,2013-07-20 11:43:00,
2013-07-20 06:52:00,74.0,73.0,-100.00,North,0,4.0,6.0,95,-99.99,,,-99.99,,2013-07-20 11:52:00,
2013-07-20 08:22:00,76.0,71.0,-100.00,North,5,6.0,8.0,85,-99.99,,,-99.99,,2013-07-20 13:22:00,
2013-07-20 08:43:00,77.0,70.0,-100.00,North,5,7.0,10.0,81,-99.99,,,-99.99,,2013-07-20 13:43:00,
2013-07-20 08:53:00,77.0,70.0,-100.00,North,5,7.0,10.0,81,-99.99,,,-99.99,,2013-07-20 13:53:00,
2013-07-20 09:02:00,78.0,70.0,-100.00,North,10,9.0,14.0,79,-99.99,,,-99.99,,2013-07-20 14:02:00,
2013-07-20 09:11:00,79.0,70.0,-100.00,NNE,15,8.0,11.0,76,-99.99,,,-99.99,,2013-07-20 14:11:00,
2013-07-20 09:22:00,79.0,70.0,-100.00,NNE,15,8.0,11.0,76,-99.99,,,-99.99,,2013-07-20 14:22:00,
2013-07-20 09:32:00,79.0,69.0,-100.00,NNE,30,11.0,15.0,71,-99.99,,,-99.99,,2013-07-20 14:32:00,
2013-07-20 09:43:00,80.0,69.0,-100.00,NE,35,11.0,17.0,70,-99.99,,,-99.99,,2013-07-20 14:43:00,
2013-07-20 09:53:00,80.0,69.0,-100.00,NE,35,11.0,17.0,70,-99.99,,,-99.99,,2013-07-20 14:53:00,
2013-07-20 10:01:00,80.0,68.0,-100.00,NNE,30,11.0,15.0,67,-99.99,,,-99.99,,2013-07-20 15:01:00,
2013-07-20 10:22:00,82.0,69.0,-100.00,NE,55,9.0,13.0,65,-99.99,,,-99.99,,2013-07-20 15:22:00,
2013-07-20 10:53:00,82.0,69.0,-100.00,North,5,10.0,15.0,63,-99.99,,,-99.99,,2013-07-20 15:53:00,
2013-07-20 11:22:00,84.0,67.0,-100.00,NNE,25,10.0,16.0,57,-99.99,,,-99.99,,2013-07-20 16:22:00,
2013-07-20 11:43:00,85.0,67.0,-100.00,NE,35,9.0,13.0,56,-99.99,,,-99.99,,2013-07-20 16:43:00,
2013-07-20 11:52:00,85.0,67.0,-100.00,NE,35,9.0,13.0,56,-99.99,,,-99.99,,2013-07-20 16:52:00,
2013-07-20 12:11:00,85.0,67.0,-100.00,North,5,6.0,10.0,55,-99.99,,,-99.99,,2013-07-20 17:11:00,
2013-07-20 12:22:00,85.0,67.0,-100.00,North,5,6.0,10.0,55,-99.99,,,-99.99,,2013-07-20 17:22:00,
2013-07-20 12:32:00,85.0,67.0,-100.00,NE,40,9.0,13.0,56,-99.99,,,-99.99,,2013-07-20 17:32:00,
2013-07-20 12:43:00,85.0,67.0,-100.00,North,355,11.0,14.0,55,-99.99,,,-99.99,,2013-07-20 17:43:00,
2013-07-20 12:53:00,85.0,67.0,-100.00,North,355,11.0,14.0,55,-99.99,,,-99.99,,2013-07-20 17:53:00,
2013-07-20 13:12:00,84.0,67.0,-100.00,North,5,9.0,12.0,56,-99.99,,,-99.99,,2013-07-20 18:12:00,
2013-07-20 13:24:00,84.0,67.0,-100.00,North,5,9.0,12.0,56,-99.99,,,-99.99,,2013-07-20 18:24:00,
2013-07-20 13:36:00,84.0,67.0,-100.00,North,10,10.0,14.0,57,-99.99,,,-99.99,,2013-07-20 18:36:00,
2013-07-20 13:45:00,84.0,67.0,-100.00,North,0,9.0,12.0,57,-99.99,,,-99.99,,2013-07-20 18:45:00,
2013-07-20 13:59:00,84.0,67.0,-100.00,North,0,9.0,12.0,57,-99.99,,,-99.99,,2013-07-20 18:59:00,
2013-07-20 14:15:00,84.0,66.0,-100.00,NNE,20,9.0,13.0,55,-99.99,,,-99.99,,2013-07-20 19:15:00,
2013-07-20 14:26:00,84.0,66.0,-100.00,NNE,20,9.0,13.0,55,-99.99,,,-99.99,,2013-07-20 19:26:00,
2013-07-20 14:35:00,84.0,66.0,-100.00,NE,35,7.0,10.0,55,-99.99,,,-99.99,,2013-07-20 19:35:00,
2013-07-20 14:43:00,85.0,67.0,-100.00,North,0,4.0,8.0,56,-99.99,,,-99.99,,2013-07-20 19:43:00,
2013-07-20 14:56:00,85.0,67.0,-100.00,North,0,4.0,8.0,56,-99.99,,,-99.99,,2013-07-20 19:56:00,
2013-07-20 15:23:00,87.0,66.0,-100.00,NNE,30,6.0,11.0,51,-99.99,,,-99.99,,2013-07-20 20:23:00,
2013-07-20 15:45:00,88.0,65.0,-100.00,NNE,15,12.0,16.0,47,-99.99,,,-99.99,,2013-07-20 20:45:00,
2013-07-20 15:58:00,88.0,65.0,-100.00,NNE,15,12.0,16.0,47,-99.99,,,-99.99,,2013-07-20 20:58:00,
2013-07-20 16:14:00,86.0,65.0,-100.00,NNE,25,8.0,11.0,50,-99.99,,,-99.99,,2013-07-20 21:14:00,
2013-07-20 16:27:00,86.0,65.0,-100.00,NNE,25,8.0,11.0,50,-99.99,,,-99.99,,2013-07-20 21:27:00,
2013-07-20 16:56:00,86.0,65.0,-100.00,NNE,30,10.0,13.0,50,-99.99,,,-99.99,,2013-07-20 21:56:00,
2013-07-20 17:25:00,86.0,65.0,-100.00,NNE,15,8.0,13.0,51,-99.99,,,-99.99,,2013-07-20 22:25:00,
2013-07-20 17:34:00,86.0,66.0,-100.00,North,10,8.0,12.0,52,-99.99,,,-99.99,,2013-07-20 22:34:00,
2013-07-20 17:47:00,86.0,65.0,-100.00,North,0,11.0,16.0,50,-99.99,,,-99.99,,2013-07-20 22:47:00,
2013-07-20 17:57:00,86.0,65.0,-100.00,North,0,11.0,16.0,50,-99.99,,,-99.99,,2013-07-20 22:57:00,
2013-07-20 18:17:00,86.0,65.0,-100.00,NE,40,6.0,12.0,50,-99.99,,,-99.99,,2013-07-20 23:17:00,
2013-07-20 18:27:00,86.0,65.0,-100.00,NE,40,6.0,12.0,50,-99.99,,,-99.99,,2013-07-20 23:27:00,
2013-07-20 18:36:00,84.0,64.0,-100.00,NE,50,7.0,13.0,52,-99.99,,,-99.99,,2013-07-20 23:36:00,
2013-07-20 18:44:00,84.0,65.0,-100.00,NE,55,6.0,7.0,53,-99.99,,,-99.99,,2013-07-20 23:44:00,
2013-07-20 18:57:00,84.0,65.0,-100.00,NE,55,6.0,7.0,53,-99.99,,,-99.99,,2013-07-20 23:57:00,
2013-07-20 19:06:00,84.0,66.0,-100.00,NE,55,5.0,8.0,54,-99.99,,,-99.99,,2013-07-21 00:06:00,
2013-07-20 19:23:00,84.0,65.0,-100.00,ENE,65,6.0,8.0,54,-99.99,,,-99.99,,2013-07-21 00:23:00,
2013-07-20 19:56:00,82.0,66.0,-100.00,ESE,105,4.0,6.0,58,-99.99,,,-99.99,,2013-07-21 00:56:00,
2013-07-20 20:27:00,79.0,69.0,-100.00,SE,130,4.0,5.0,70,-99.99,,,-99.99,,2013-07-21 01:27:00,
2013-07-20 20:36:00,79.0,69.0,-100.00,ESE,120,4.0,4.0,72,-99.99,,,-99.99,,2013-07-21 01:36:00,
2013-07-20 20:46:00,-999.0,-99.9,-100.00,ESE,120,1.0,3.0,-999,-99.99,,,-99.99,,2013-07-21 01:46:00,
2013-07-20 20:59:00,77.0,69.0,-100.00,ESE,120,1.0,3.0,76,-99.99,,,-99.99,,2013-07-21 01:59:00,
2013-07-20 21:17:00,76.0,68.0,-100.00,South,180,0.0,0.0,76,-99.99,,,-99.99,,2013-07-21 02:17:00,
2013-07-20 21:26:00,76.0,68.0,-100.00,South,180,0.0,0.0,76,-99.99,,,-99.99,,2013-07-21 02:26:00,
2013-07-20 21:36:00,75.0,69.0,-100.00,NW,305,1.0,2.0,80,-99.99,,,-99.99,,2013-07-21 02:36:00,
2013-07-20 21:44:00,74.0,69.0,-100.00,NNW,330,4.0,4.0,84,-99.99,,,-99.99,,2013-07-21 02:44:00,
2013-07-20 21:58:00,74.0,69.0,-100.00,NNW,330,4.0,4.0,84,-99.99,,,-99.99,,2013-07-21 02:58:00,
2013-07-20 22:14:00,74.0,68.0,-100.00,East,85,0.0,2.0,83,-99.99,,,-99.99,,2013-07-21 03:14:00,
2013-07-20 22:25:00,74.0,68.0,-100.00,East,85,0.0,2.0,83,-99.99,,,-99.99,,2013-07-21 03:25:00,
2013-07-20 22:35:00,74.0,68.0,-100.00,North,5,1.0,1.0,82,-99.99,,,-99.99,,2013-07-21 03:35:00,
2013-07-20 23:00:00,72.0,68.0,-100.00,NNE,20,1.0,4.0,85,-99.99,,,-99.99,,2013-07-21 04:00:00,
2013-07-20 23:11:00,72.0,68.0,-100.00,East,95,0.0,0.0,87,-99.99,,,-99.99,,2013-07-21 04:11:00,
2013-07-20 23:22:00,72.0,68.0,-100.00,East,95,0.0,0.0,87,-99.99,,,-99.99,,2013-07-21 04:22:00,
2013-07-20 23:43:00,71.0,67.0,-100.00,NNE,30,2.0,4.0,87,-99.99,,,-99.99,,2013-07-21 04:43:00,
2013-07-20 23:53:00,71.0,67.0,-100.00,NNE,30,2.0,4.0,87,-99.99,,,-99.99,,2013-07-21 04:53:00,